Time;durP1;ratioP1;P1;durP2;ratioP2;P2;SDS_P1;SDS_P2;PMS_P1;PMS_P2;Temp;Humidity;BMP_temperature;BMP_pressure;BME280_temperature;BME280_humidity;BME280_pressure;Samples;Min_cycle;Max_cycle;Signal;HPM_P1;HPM_P2
2023/10/23 00:00:17;;;;;;;2.80;1.67;;;;;;;;;;5027212;28;20083;-58
2023/10/23 00:02:44;;;;;;;2.97;1.67;;;;;;;;;;5031723;28;20028;-59
2023/10/23 00:05:12;;;;;;;2.78;1.73;;;;;;;;;;5031828;28;20018;-59
2023/10/23 00:07:38;;;;;;;17.77;2.83;;;;;;;;;;5031204;28;20037;-58
2023/10/23 00:10:05;;;;;;;6.38;1.92;;;;;;;;;;5031498;28;20460;-58
2023/10/23 00:12:32;;;;;;;6.90;3.40;;;;;;;;;;5029752;28;20500;-58
2023/10/23 00:14:59;;;;;;;2.60;1.75;;;;;;;;;;5026256;28;20053;-58
2023/10/23 00:17:26;;;;;;;2.40;1.33;;;;;;;;;;5026076;28;20061;-58
2023/10/23 00:19:52;;;;;;;3.10;1.42;;;;;;;;;;5026404;28;20124;-59
2023/10/23 00:22:19;;;;;;;3.67;1.73;;;;;;;;;;5026090;28;20503;-59
2023/10/23 00:24:46;;;;;;;2.25;1.25;;;;;;;;;;5031449;28;20018;-59
2023/10/23 00:27:12;;;;;;;4.72;1.10;;;;;;;;;;5031214;28;20131;-58
2023/10/23 00:29:39;;;;;;;10.48;1.52;;;;;;;;;;5031149;28;20088;-59
2023/10/23 00:32:06;;;;;;;12.90;1.40;;;;;;;;;;5031264;28;20626;-58
2023/10/23 00:34:32;;;;;;;2.35;1.05;;;;;;;;;;5033869;28;20468;-58
2023/10/23 00:36:59;;;;;;;2.00;1.30;;;;;;;;;;5029570;28;20018;-58
2023/10/23 00:39:26;;;;;;;1.33;1.02;;;;;;;;;;5029860;28;20431;-58
2023/10/23 00:41:52;;;;;;;1.92;1.30;;;;;;;;;;5029036;28;20030;-58
2023/10/23 00:44:19;;;;;;;2.45;1.52;;;;;;;;;;5029777;28;20029;-58
2023/10/23 00:46:45;;;;;;;0.88;0.75;;;;;;;;;;5033662;28;20049;-58
2023/10/23 00:49:12;;;;;;;2.28;1.30;;;;;;;;;;5034286;28;20088;-58
2023/10/23 00:51:39;;;;;;;1.87;1.33;;;;;;;;;;5034427;28;20021;-58
2023/10/23 00:54:07;;;;;;;1.73;1.23;;;;;;;;;;5034321;28;20567;-58
2023/10/23 00:56:34;;;;;;;1.65;1.27;;;;;;;;;;5034792;28;20100;-59
2023/10/23 00:59:01;;;;;;;2.37;1.37;;;;;;;;;;5030162;28;20061;-59
2023/10/23 01:01:30;;;;;;;2.13;1.40;;;;;;;;;;5029424;28;20021;-58
2023/10/23 01:03:56;;;;;;;2.47;1.43;;;;;;;;;;5029126;28;20045;-59
2023/10/23 01:06:23;;;;;;;2.47;1.70;;;;;;;;;;5029208;28;20049;-58
2023/10/23 01:08:50;;;;;;;3.13;2.10;;;;;;;;;;5032127;28;20080;-59
2023/10/23 01:11:16;;;;;;;4.43;2.33;;;;;;;;;;5034523;28;20033;-58
2023/10/23 01:13:43;;;;;;;4.87;2.83;;;;;;;;;;5034282;28;20032;-58
2023/10/23 01:16:10;;;;;;;2.90;1.83;;;;;;;;;;5033829;28;20075;-58
2023/10/23 01:18:37;;;;;;;3.53;2.07;;;;;;;;;;5033937;28;20112;-58
2023/10/23 01:21:03;;;;;;;5.00;2.37;;;;;;;;;;5031173;28;20030;-57
2023/10/23 01:23:33;;;;;;;2.90;2.07;;;;;;;;;;5026702;28;20033;-58
2023/10/23 01:26:00;;;;;;;3.60;2.27;;;;;;;;;;5028785;28;20029;-58
2023/10/23 01:28:27;;;;;;;12.47;3.13;;;;;;;;;;5028805;28;20025;-58
2023/10/23 01:30:53;;;;;;;2.40;1.53;;;;;;;;;;5030969;28;20036;-57
2023/10/23 01:33:20;;;;;;;2.60;1.63;;;;;;;;;;5033717;28;20032;-57
2023/10/23 01:35:47;;;;;;;2.90;2.23;;;;;;;;;;5033889;28;20476;-57
2023/10/23 01:38:15;;;;;;;5.40;2.10;;;;;;;;;;5033485;28;20030;-57
2023/10/23 01:40:41;;;;;;;4.23;2.43;;;;;;;;;;5031054;28;20024;-57
2023/10/23 01:43:08;;;;;;;3.60;2.43;;;;;;;;;;5013655;28;20026;-57
2023/10/23 01:45:35;;;;;;;9.10;2.37;;;;;;;;;;5012877;28;20024;-57
2023/10/23 01:48:02;;;;;;;14.83;2.60;;;;;;;;;;5028706;28;20029;-58
2023/10/23 01:50:29;;;;;;;2.90;1.93;;;;;;;;;;5028604;28;20400;-57
2023/10/23 01:52:55;;;;;;;3.80;2.50;;;;;;;;;;5029713;28;20014;-57
2023/10/23 01:55:22;;;;;;;4.20;3.03;;;;;;;;;;5033639;28;20021;-58
2023/10/23 01:57:49;;;;;;;4.10;2.77;;;;;;;;;;5033291;28;20108;-57
2023/10/23 02:00:16;;;;;;;9.47;3.33;;;;;;;;;;5033458;28;20036;-57
2023/10/23 02:02:42;;;;;;;4.47;2.97;;;;;;;;;;5033267;28;20029;-57
2023/10/23 02:05:09;;;;;;;6.20;2.90;;;;;;;;;;5032320;28;20032;-57
2023/10/23 02:07:36;;;;;;;7.27;2.60;;;;;;;;;;5028230;28;20041;-57
2023/10/23 02:10:02;;;;;;;4.20;2.27;;;;;;;;;;5028353;28;20165;-57
2023/10/23 02:12:29;;;;;;;3.57;2.57;;;;;;;;;;5028100;28;20025;-58
2023/10/23 02:14:56;;;;;;;4.03;2.20;;;;;;;;;;5028177;28;20071;-57
2023/10/23 02:17:22;;;;;;;5.87;3.20;;;;;;;;;;5033242;28;20030;-58
2023/10/23 02:19:49;;;;;;;3.70;2.87;;;;;;;;;;5033254;28;20030;-57
2023/10/23 02:22:17;;;;;;;5.13;3.07;;;;;;;;;;5033059;28;20460;-58
2023/10/23 02:24:44;;;;;;;3.77;2.77;;;;;;;;;;5033124;28;20040;-58
2023/10/23 02:27:11;;;;;;;4.00;2.70;;;;;;;;;;5033092;28;20128;-57
2023/10/23 02:29:40;;;;;;;4.93;2.80;;;;;;;;;;5027627;28;20047;-57
2023/10/23 02:32:07;;;;;;;3.63;2.80;;;;;;;;;;5027906;28;20029;-57
2023/10/23 02:34:36;;;;;;;4.17;2.77;;;;;;;;;;5027600;28;20025;-58
2023/10/23 02:37:03;;;;;;;6.43;2.97;;;;;;;;;;5027944;28;20088;-57
2023/10/23 02:39:30;;;;;;;7.10;3.70;;;;;;;;;;5032498;28;20365;-57
2023/10/23 02:41:56;;;;;;;4.80;3.00;;;;;;;;;;5032574;28;20028;-57
2023/10/23 02:44:23;;;;;;;4.27;2.83;;;;;;;;;;5032735;28;20072;-58
2023/10/23 02:46:49;;;;;;;6.63;3.40;;;;;;;;;;5032803;28;20439;-57
2023/10/23 02:49:16;;;;;;;6.93;4.27;;;;;;;;;;5032589;28;20099;-57
2023/10/23 02:51:43;;;;;;;5.53;4.17;;;;;;;;;;5027928;28;20025;-57
2023/10/23 02:54:10;;;;;;;8.47;3.97;;;;;;;;;;5027392;28;20029;-57
2023/10/23 02:56:37;;;;;;;6.10;4.37;;;;;;;;;;5025819;28;20124;-58
2023/10/23 02:59:04;;;;;;;9.10;4.83;;;;;;;;;;5026277;28;20046;-57
2023/10/23 03:01:31;;;;;;;5.53;4.57;;;;;;;;;;5030860;28;20368;-57
2023/10/23 03:03:57;;;;;;;8.73;4.13;;;;;;;;;;5032601;28;20032;-57
2023/10/23 03:06:24;;;;;;;5.03;3.07;;;;;;;;;;5032335;28;20384;-57
2023/10/23 03:08:51;;;;;;;7.27;3.50;;;;;;;;;;5032278;28;20380;-57
2023/10/23 03:11:18;;;;;;;3.97;3.10;;;;;;;;;;5032238;28;20034;-57
2023/10/23 03:13:44;;;;;;;5.07;3.70;;;;;;;;;;5028037;28;20025;-57
2023/10/23 03:16:14;;;;;;;6.23;3.83;;;;;;;;;;5026726;28;20040;-56
2023/10/23 03:18:41;;;;;;;7.33;4.00;;;;;;;;;;5006906;28;20096;-56
2023/10/23 03:21:08;;;;;;;6.50;3.93;;;;;;;;;;5021892;28;20029;-57
2023/10/23 03:23:35;;;;;;;7.77;4.77;;;;;;;;;;5029756;28;20029;-57
2023/10/23 03:26:02;;;;;;;6.90;3.80;;;;;;;;;;5031504;28;20018;-57
2023/10/23 03:28:29;;;;;;;7.10;4.63;;;;;;;;;;5032100;28;20018;-57
2023/10/23 03:30:57;;;;;;;7.10;4.43;;;;;;;;;;5032053;28;20026;-56
2023/10/23 03:33:24;;;;;;;5.60;4.50;;;;;;;;;;5031963;28;20033;-57
2023/10/23 03:35:51;;;;;;;7.23;4.13;;;;;;;;;;5028090;28;20079;-57
2023/10/23 03:38:20;;;;;;;5.27;3.70;;;;;;;;;;5026706;28;20033;-57
2023/10/23 03:40:56;;;;;;;5.97;4.13;;;;;;;;;;5026577;28;20480;-57
2023/10/23 03:43:23;;;;;;;7.80;4.60;;;;;;;;;;5026502;28;20087;-57
2023/10/23 03:45:50;;;;;;;30.07;5.07;;;;;;;;;;5029259;28;20083;-57
2023/10/23 03:48:16;;;;;;;5.30;3.77;;;;;;;;;;5031993;28;20030;-57
2023/10/23 03:50:43;;;;;;;6.17;4.10;;;;;;;;;;5031681;28;20034;-58
2023/10/23 03:53:10;;;;;;;5.87;4.17;;;;;;;;;;5031761;28;20029;-57
2023/10/23 03:55:38;;;;;;;4.80;3.67;;;;;;;;;;5031712;28;20743;-57
2023/10/23 03:58:05;;;;;;;4.07;3.00;;;;;;;;;;5029095;28;20036;-57
2023/10/23 04:00:32;;;;;;;5.53;4.00;;;;;;;;;;5026333;28;20025;-56
2023/10/23 04:02:58;;;;;;;10.07;3.87;;;;;;;;;;5026604;28;20033;-56
2023/10/23 04:05:25;;;;;;;6.03;2.60;;;;;;;;;;5026683;28;20033;-56
2023/10/23 04:07:52;;;;;;;2.80;2.10;;;;;;;;;;5029648;28;20092;-57
2023/10/23 04:10:18;;;;;;;12.00;3.10;;;;;;;;;;5035315;28;20029;-57
2023/10/23 04:12:45;;;;;;;4.03;2.30;;;;;;;;;;5035457;28;20042;-56
2023/10/23 04:15:12;;;;;;;3.87;2.57;;;;;;;;;;5035303;28;20112;-57
2023/10/23 04:17:38;;;;;;;11.77;2.50;;;;;;;;;;5035638;28;20022;-56
2023/10/23 04:20:06;;;;;;;5.13;3.43;;;;;;;;;;5033374;28;20033;-57
2023/10/23 04:22:33;;;;;;;10.10;3.37;;;;;;;;;;5030064;28;20044;-57
2023/10/23 04:24:59;;;;;;;11.50;2.80;;;;;;;;;;5030181;28;20072;-56
2023/10/23 04:27:26;;;;;;;3.13;2.30;;;;;;;;;;5030072;28;20025;-57
2023/10/23 04:29:53;;;;;;;3.40;2.20;;;;;;;;;;5030577;28;20030;-56
2023/10/23 04:32:20;;;;;;;4.50;2.43;;;;;;;;;;5034999;28;20108;-57
2023/10/23 04:34:46;;;;;;;2.53;1.77;;;;;;;;;;5034822;28;20029;-57
2023/10/23 04:37:13;;;;;;;5.60;2.27;;;;;;;;;;5035232;28;20480;-57
2023/10/23 04:39:39;;;;;;;3.30;2.40;;;;;;;;;;5035043;28;20033;-57
2023/10/23 04:42:06;;;;;;;3.07;2.27;;;;;;;;;;5034343;28;20379;-56
2023/10/23 04:44:33;;;;;;;5.23;2.27;;;;;;;;;;5029623;28;20476;-57
2023/10/23 04:47:00;;;;;;;2.70;1.90;;;;;;;;;;5029428;28;20040;-57
2023/10/23 04:49:27;;;;;;;3.40;2.60;;;;;;;;;;5029312;28;20814;-57
2023/10/23 04:51:53;;;;;;;6.13;3.10;;;;;;;;;;5029637;28;20030;-56
2023/10/23 04:54:20;;;;;;;3.57;2.37;;;;;;;;;;5034926;28;20484;-56
2023/10/23 04:56:47;;;;;;;3.27;2.30;;;;;;;;;;5034850;28;20025;-56
2023/10/23 04:59:14;;;;;;;3.70;2.57;;;;;;;;;;5034580;28;20041;-56
2023/10/23 05:01:41;;;;;;;4.67;2.53;;;;;;;;;;5034506;28;20029;-57
2023/10/23 05:04:07;;;;;;;5.13;2.23;;;;;;;;;;5034681;28;20036;-57
2023/10/23 05:06:34;;;;;;;3.37;1.83;;;;;;;;;;5029213;28;20029;-57
2023/10/23 05:09:00;;;;;;;2.63;2.10;;;;;;;;;;5029596;28;20036;-56
2023/10/23 05:11:27;;;;;;;1.60;1.43;;;;;;;;;;5029533;28;20479;-56
2023/10/23 05:13:54;;;;;;;4.53;2.47;;;;;;;;;;5029101;28;20022;-56
2023/10/23 05:16:20;;;;;;;15.37;3.13;;;;;;;;;;5033635;28;20035;-56
2023/10/23 05:18:47;;;;;;;6.97;1.83;;;;;;;;;;5033793;28;20034;-56
2023/10/23 05:21:14;;;;;;;3.03;2.30;;;;;;;;;;5034363;28;20022;-57
2023/10/23 05:23:41;;;;;;;5.23;2.50;;;;;;;;;;5033970;28;20048;-57
2023/10/23 05:26:10;;;;;;;2.90;1.90;;;;;;;;;;5033978;28;20021;-56
2023/10/23 05:28:40;;;;;;;3.23;2.17;;;;;;;;;;5029764;28;20095;-56
2023/10/23 05:31:08;;;;;;;4.10;2.30;;;;;;;;;;5028970;28;20022;-56
2023/10/23 05:33:35;;;;;;;3.67;2.00;;;;;;;;;;5028949;28;20488;-56
2023/10/23 05:36:05;;;;;;;3.47;1.87;;;;;;;;;;5028960;28;20461;-56
2023/10/23 05:38:36;;;;;;;3.43;1.77;;;;;;;;;;5032429;28;20061;-57
2023/10/23 05:41:03;;;;;;;2.40;2.03;;;;;;;;;;5033874;28;20089;-56
2023/10/23 05:43:30;;;;;;;3.10;1.97;;;;;;;;;;5033815;28;20566;-56
2023/10/23 05:45:57;;;;;;;5.13;2.33;;;;;;;;;;5034038;28;20097;-57
2023/10/23 05:48:23;;;;;;;3.03;2.30;;;;;;;;;;5033882;28;20121;-56
2023/10/23 05:51:00;;;;;;;4.77;3.30;;;;;;;;;;5030146;28;20526;-56
2023/10/23 05:53:27;;;;;;;5.13;2.57;;;;;;;;;;5028931;28;20032;-56
2023/10/23 05:55:54;;;;;;;3.20;2.27;;;;;;;;;;5028402;28;20084;-56
2023/10/23 05:58:21;;;;;;;4.47;2.77;;;;;;;;;;5028087;28;20022;-56
2023/10/23 06:00:48;;;;;;;2.30;1.67;;;;;;;;;;5031860;28;20079;-56
2023/10/23 06:03:14;;;;;;;4.07;2.70;;;;;;;;;;5033634;28;20048;-56
2023/10/23 06:05:41;;;;;;;18.03;3.13;;;;;;;;;;5033750;28;20036;-56
2023/10/23 06:08:08;;;;;;;4.13;2.40;;;;;;;;;;5033546;28;20087;-56
2023/10/23 06:10:44;;;;;;;3.23;2.37;;;;;;;;;;5033435;28;20025;-56
2023/10/23 06:13:14;;;;;;;2.77;2.27;;;;;;;;;;5029656;28;20031;-56
2023/10/23 06:15:41;;;;;;;3.00;2.37;;;;;;;;;;5028171;28;20022;-56
2023/10/23 06:18:07;;;;;;;2.20;1.70;;;;;;;;;;5028129;28;20129;-57
2023/10/23 06:20:34;;;;;;;3.20;2.47;;;;;;;;;;5028379;28;20491;-56
2023/10/23 06:23:01;;;;;;;3.60;2.17;;;;;;;;;;5030700;28;20372;-56
2023/10/23 06:25:29;;;;;;;3.37;2.30;;;;;;;;;;5033194;28;20063;-56
2023/10/23 06:27:56;;;;;;;4.30;2.97;;;;;;;;;;5032774;28;20029;-56
2023/10/23 06:30:22;;;;;;;4.23;2.87;;;;;;;;;;5032661;28;20053;-56
2023/10/23 06:32:49;;;;;;;3.20;2.07;;;;;;;;;;5032290;28;20032;-56
2023/10/23 06:35:16;;;;;;;5.00;2.70;;;;;;;;;;5030204;28;20026;-56
2023/10/23 06:37:43;;;;;;;4.10;2.37;;;;;;;;;;5027721;28;20051;-56
2023/10/23 06:40:10;;;;;;;6.20;2.03;;;;;;;;;;5027681;28;20052;-56
2023/10/23 06:42:36;;;;;;;4.77;3.30;;;;;;;;;;5027874;28;20021;-56
2023/10/23 06:45:03;;;;;;;4.40;2.90;;;;;;;;;;5029789;28;20502;-56
2023/10/23 06:47:30;;;;;;;8.07;3.07;;;;;;;;;;5032423;28;20021;-56
2023/10/23 06:49:57;;;;;;;2.67;2.13;;;;;;;;;;5032676;28;20053;-56
2023/10/23 06:52:23;;;;;;;7.50;3.30;;;;;;;;;;5032359;28;20049;-56
2023/10/23 06:54:50;;;;;;;4.77;3.07;;;;;;;;;;5032717;28;20499;-56
2023/10/23 06:57:17;;;;;;;4.93;2.73;;;;;;;;;;5030429;28;20029;-56
2023/10/23 06:59:43;;;;;;;5.10;2.80;;;;;;;;;;5027329;28;20043;-56
2023/10/23 07:02:10;;;;;;;3.70;2.67;;;;;;;;;;5027508;28;20479;-56
2023/10/23 07:04:36;;;;;;;4.00;2.73;;;;;;;;;;5026715;28;20032;-57
2023/10/23 07:07:03;;;;;;;10.20;3.03;;;;;;;;;;5028391;28;20044;-56
2023/10/23 07:09:31;;;;;;;2.97;2.10;;;;;;;;;;5031329;28;20025;-56
2023/10/23 07:11:57;;;;;;;3.97;2.90;;;;;;;;;;5025262;28;20025;-56
2023/10/23 07:14:24;;;;;;;3.07;2.33;;;;;;;;;;5030214;28;20033;-57
2023/10/23 07:16:51;;;;;;;8.77;4.13;;;;;;;;;;5032016;28;20021;-57
2023/10/23 07:19:17;;;;;;;9.97;3.93;;;;;;;;;;5030586;28;20030;-57
2023/10/23 07:21:44;;;;;;;3.50;2.67;;;;;;;;;;5026573;28;20021;-57
2023/10/23 07:24:11;;;;;;;3.10;2.53;;;;;;;;;;5026916;28;20021;-57
2023/10/23 07:26:38;;;;;;;3.83;2.20;;;;;;;;;;5026983;28;20381;-57
2023/10/23 07:29:04;;;;;;;3.77;2.73;;;;;;;;;;5027203;28;20077;-57
2023/10/23 07:31:31;;;;;;;3.87;2.50;;;;;;;;;;5031721;28;20029;-57
2023/10/23 07:33:57;;;;;;;4.47;2.93;;;;;;;;;;5032037;28;20079;-57
2023/10/23 07:36:24;;;;;;;7.93;4.70;;;;;;;;;;5032217;28;20493;-57
2023/10/23 07:38:51;;;;;;;5.83;3.80;;;;;;;;;;5031701;28;20064;-57
2023/10/23 07:41:18;;;;;;;6.03;3.97;;;;;;;;;;5031672;28;20432;-57
2023/10/23 07:43:45;;;;;;;4.33;2.80;;;;;;;;;;5026336;28;20108;-57
2023/10/23 07:46:12;;;;;;;5.50;3.60;;;;;;;;;;5026816;28;20033;-57
2023/10/23 07:48:39;;;;;;;3.23;2.17;;;;;;;;;;5026702;28;20575;-56
2023/10/23 07:51:06;;;;;;;4.73;3.57;;;;;;;;;;5026896;28;20040;-57
2023/10/23 07:53:35;;;;;;;3.20;2.30;;;;;;;;;;5031371;28;20108;-56
2023/10/23 07:56:04;;;;;;;3.37;2.37;;;;;;;;;;5031920;28;20365;-56
2023/10/23 07:58:31;;;;;;;5.17;3.67;;;;;;;;;;5031140;28;20484;-56
2023/10/23 08:01:07;;;;;;;5.40;3.47;;;;;;;;;;5031511;28;20025;-57
2023/10/23 08:03:34;;;;;;;5.80;4.33;;;;;;;;;;5031862;28;20029;-57
2023/10/23 08:06:03;;;;;;;5.57;3.20;;;;;;;;;;5026857;28;20487;-57
2023/10/23 08:08:35;;;;;;;6.13;4.57;;;;;;;;;;5026519;28;20036;-57
2023/10/23 08:11:04;;;;;;;9.13;4.97;;;;;;;;;;5026746;28;20752;-57
2023/10/23 08:13:31;;;;;;;9.57;4.93;;;;;;;;;;5025687;28;20018;-56
2023/10/23 08:15:58;;;;;;;6.43;3.30;;;;;;;;;;5030647;28;20049;-57
2023/10/23 08:18:25;;;;;;;4.27;3.47;;;;;;;;;;5031359;28;20431;-56
2023/10/23 08:20:51;;;;;;;4.57;4.07;;;;;;;;;;5031928;28;20083;-57
2023/10/23 08:23:18;;;;;;;5.90;4.47;;;;;;;;;;5031643;28;20423;-56
2023/10/23 08:25:45;;;;;;;4.60;3.70;;;;;;;;;;5031721;28;20026;-57
2023/10/23 08:28:12;;;;;;;5.43;3.17;;;;;;;;;;5026908;28;20536;-57
2023/10/23 08:30:38;;;;;;;6.93;4.20;;;;;;;;;;5026367;28;20060;-57
2023/10/23 08:33:05;;;;;;;5.80;4.30;;;;;;;;;;5026111;28;20490;-57
2023/10/23 08:35:32;;;;;;;6.20;5.00;;;;;;;;;;5026553;28;20139;-57
2023/10/23 08:37:58;;;;;;;7.63;5.47;;;;;;;;;;5030311;28;20025;-57
2023/10/23 08:40:25;;;;;;;5.27;4.13;;;;;;;;;;5031271;28;20080;-57
2023/10/23 08:42:52;;;;;;;5.73;3.43;;;;;;;;;;5031441;28;20025;-56
2023/10/23 08:45:19;;;;;;;5.27;3.77;;;;;;;;;;5031511;28;20090;-56
2023/10/23 08:47:45;;;;;;;4.37;3.37;;;;;;;;;;5031523;28;20028;-56
2023/10/23 08:50:12;;;;;;;5.87;3.73;;;;;;;;;;5027234;28;20037;-57
2023/10/23 08:52:46;;;;;;;6.90;4.37;;;;;;;;;;5026376;28;20492;-57
2023/10/23 08:55:14;;;;;;;6.00;4.55;;;;;;;;;;5027928;28;20045;-56
2023/10/23 08:57:48;;;;;;;5.00;3.97;;;;;;;;;;5029525;28;20033;-57
2023/10/23 09:00:14;;;;;;;6.07;4.47;;;;;;;;;;5033247;28;20052;-57
2023/10/23 09:02:41;;;;;;;9.20;4.40;;;;;;;;;;5034682;28;20103;-56
2023/10/23 09:05:08;;;;;;;8.77;5.77;;;;;;;;;;5034689;28;20575;-57
2023/10/23 09:07:34;;;;;;;5.60;4.57;;;;;;;;;;5034176;28;20029;-57
2023/10/23 09:10:04;;;;;;;5.57;4.27;;;;;;;;;;5034560;28;20029;-56
2023/10/23 09:12:32;;;;;;;8.13;5.40;;;;;;;;;;5030541;28;20033;-56
2023/10/23 09:14:59;;;;;;;6.03;4.57;;;;;;;;;;5029295;28;20029;-57
2023/10/23 09:17:27;;;;;;;6.77;4.40;;;;;;;;;;5029824;28;20096;-57
2023/10/23 09:19:53;;;;;;;6.07;3.97;;;;;;;;;;5029406;28;20037;-57
2023/10/23 09:22:20;;;;;;;5.83;4.07;;;;;;;;;;5031936;28;20484;-57
2023/10/23 09:24:47;;;;;;;7.03;4.60;;;;;;;;;;5034031;28;20033;-57
2023/10/23 09:27:14;;;;;;;7.47;4.80;;;;;;;;;;5034097;28;20064;-56
2023/10/23 09:29:40;;;;;;;6.00;4.80;;;;;;;;;;5034119;28;20037;-57
2023/10/23 09:32:07;;;;;;;8.40;5.77;;;;;;;;;;5034461;28;20372;-57
2023/10/23 09:34:34;;;;;;;5.93;4.70;;;;;;;;;;5031283;28;20033;-57
2023/10/23 09:37:00;;;;;;;7.17;5.10;;;;;;;;;;5028854;28;20083;-57
2023/10/23 09:39:27;;;;;;;10.10;6.20;;;;;;;;;;5028378;28;20037;-57
2023/10/23 09:41:54;;;;;;;8.73;5.10;;;;;;;;;;5028979;28;20018;-57
2023/10/23 09:44:21;;;;;;;8.60;5.70;;;;;;;;;;5031085;28;20029;-56
2023/10/23 09:46:50;;;;;;;7.27;5.00;;;;;;;;;;5034054;28;20031;-56
2023/10/23 09:49:16;;;;;;;6.60;4.80;;;;;;;;;;5033871;28;20033;-57
2023/10/23 09:51:44;;;;;;;8.80;5.67;;;;;;;;;;5033879;28;20565;-57
2023/10/23 09:54:19;;;;;;;6.37;3.90;;;;;;;;;;5014087;28;20026;-57
2023/10/23 09:56:50;;;;;;;6.10;4.60;;;;;;;;;;5011365;28;20560;-56
2023/10/23 09:59:20;;;;;;;8.50;5.87;;;;;;;;;;5008509;28;20068;-56
2023/10/23 10:01:50;;;;;;;7.90;5.53;;;;;;;;;;5008925;28;20481;-57
2023/10/23 10:04:29;;;;;;;6.07;4.87;;;;;;;;;;5008794;28;20109;-56
2023/10/23 10:07:00;;;;;;;7.87;3.80;;;;;;;;;;5010793;28;20503;-56
2023/10/23 10:09:27;;;;;;;6.53;3.53;;;;;;;;;;5028960;28;20030;-57
2023/10/23 10:11:57;;;;;;;6.27;4.40;;;;;;;;;;5033416;28;20021;-57
2023/10/23 10:14:27;;;;;;;8.57;3.63;;;;;;;;;;5033581;28;20445;-56
2023/10/23 10:16:55;;;;;;;4.77;3.67;;;;;;;;;;5032997;28;21694;-57
2023/10/23 10:19:22;;;;;;;5.80;4.03;;;;;;;;;;5029982;28;20047;-56
2023/10/23 10:22:04;;;;;;;4.40;3.37;;;;;;;;;;5027855;28;20029;-57
2023/10/23 10:24:32;;;;;;;6.53;4.07;;;;;;;;;;5028169;28;20032;-57
2023/10/23 10:27:01;;;;;;;7.43;4.87;;;;;;;;;;5028015;28;20491;-56
2023/10/23 10:29:27;;;;;;;4.20;3.07;;;;;;;;;;5030793;28;20037;-56
2023/10/23 10:32:09;;;;;;;4.57;3.50;;;;;;;;;;5032883;28;20075;-56
2023/10/23 10:34:37;;;;;;;7.23;4.97;;;;;;;;;;5032894;28;20076;-56
2023/10/23 10:37:06;;;;;;;5.93;4.20;;;;;;;;;;5032929;28;20034;-57
2023/10/23 10:39:50;;;;;;;5.17;4.13;;;;;;;;;;5032836;28;20061;-56
2023/10/23 10:42:28;;;;;;;6.43;4.87;;;;;;;;;;5028614;28;20044;-56
2023/10/23 10:44:55;;;;;;;8.30;4.27;;;;;;;;;;5027849;28;20052;-56
2023/10/23 10:47:37;;;;;;;5.20;4.40;;;;;;;;;;5027612;28;20021;-57
2023/10/23 10:50:05;;;;;;;8.70;4.90;;;;;;;;;;5028035;28;20535;-57
2023/10/23 10:52:35;;;;;;;5.90;3.70;;;;;;;;;;5031801;28;20026;-56
2023/10/23 10:55:07;;;;;;;7.93;4.53;;;;;;;;;;5032229;28;20116;-56
2023/10/23 10:57:34;;;;;;;6.27;3.80;;;;;;;;;;5032554;28;20092;-57
2023/10/23 11:00:03;;;;;;;3.47;2.60;;;;;;;;;;5032457;28;20033;-56
2023/10/23 11:02:29;;;;;;;4.70;3.30;;;;;;;;;;5032497;28;20067;-56
2023/10/23 11:04:56;;;;;;;3.43;2.63;;;;;;;;;;5027676;28;20064;-56
2023/10/23 11:07:26;;;;;;;7.80;4.40;;;;;;;;;;5027608;28;20443;-57
2023/10/23 11:09:54;;;;;;;5.33;4.07;;;;;;;;;;5027318;28;20017;-56
2023/10/23 11:12:21;;;;;;;7.03;5.17;;;;;;;;;;5027249;28;20032;-57
2023/10/23 11:14:48;;;;;;;6.40;4.63;;;;;;;;;;5031473;28;20064;-56
2023/10/23 11:17:15;;;;;;;9.17;5.10;;;;;;;;;;5031842;28;20376;-56
2023/10/23 11:19:44;;;;;;;7.53;5.30;;;;;;;;;;5032310;28;20419;-56
2023/10/23 11:22:14;;;;;;;6.00;4.83;;;;;;;;;;5031898;28;20025;-57
2023/10/23 11:24:41;;;;;;;10.43;5.33;;;;;;;;;;5032358;28;20029;-56
2023/10/23 11:27:08;;;;;;;7.57;5.57;;;;;;;;;;5027304;28;20496;-57
2023/10/23 11:29:41;;;;;;;9.67;6.53;;;;;;;;;;5027206;28;20538;-57
2023/10/23 11:32:08;;;;;;;6.10;4.70;;;;;;;;;;5027501;28;20419;-56
2023/10/23 11:34:38;;;;;;;9.40;5.27;;;;;;;;;;5026927;28;20033;-56
2023/10/23 11:37:05;;;;;;;9.30;5.60;;;;;;;;;;5030647;28;20080;-56
2023/10/23 11:39:32;;;;;;;6.63;5.13;;;;;;;;;;5031939;28;20026;-56
2023/10/23 11:42:00;;;;;;;4.67;3.53;;;;;;;;;;5031216;28;20095;-58
2023/10/23 11:44:27;;;;;;;9.47;5.80;;;;;;;;;;5032163;28;20388;-56
2023/10/23 11:47:00;;;;;;;13.67;6.23;;;;;;;;;;5032153;28;20037;-56
2023/10/23 11:49:27;;;;;;;7.77;5.67;;;;;;;;;;5027793;28;20032;-56
2023/10/23 11:51:56;;;;;;;6.27;5.27;;;;;;;;;;5027152;28;20083;-57
2023/10/23 11:54:26;;;;;;;8.67;5.93;;;;;;;;;;5026741;28;20040;-56
2023/10/23 11:56:55;;;;;;;6.97;5.20;;;;;;;;;;5026033;28;20384;-56
2023/10/23 11:59:22;;;;;;;5.83;4.73;;;;;;;;;;5030164;28;20523;-56
2023/10/23 12:01:49;;;;;;;5.17;4.20;;;;;;;;;;5031824;28;20033;-56
2023/10/23 12:04:16;;;;;;;7.93;4.83;;;;;;;;;;5031775;28;20034;-56
2023/10/23 12:06:43;;;;;;;5.17;3.93;;;;;;;;;;5031579;28;20028;-57
2023/10/23 12:09:10;;;;;;;7.50;5.00;;;;;;;;;;5031709;28;20088;-56
2023/10/23 12:11:37;;;;;;;8.70;5.57;;;;;;;;;;5027750;28;20068;-57
2023/10/23 12:14:04;;;;;;;8.93;5.70;;;;;;;;;;5026448;28;20053;-57
2023/10/23 12:16:31;;;;;;;8.13;4.00;;;;;;;;;;5026549;28;20026;-56
2023/10/23 12:18:58;;;;;;;6.00;4.50;;;;;;;;;;5026777;28;20037;-56
2023/10/23 12:21:25;;;;;;;18.13;5.53;;;;;;;;;;5029070;28;20034;-56
2023/10/23 12:23:52;;;;;;;5.43;4.30;;;;;;;;;;5031547;28;20026;-57
2023/10/23 12:26:21;;;;;;;6.30;4.43;;;;;;;;;;5031636;28;20151;-56
2023/10/23 12:28:51;;;;;;;6.77;5.47;;;;;;;;;;5032787;28;20384;-56
2023/10/23 12:31:18;;;;;;;7.20;5.23;;;;;;;;;;5035235;28;20028;-56
2023/10/23 12:33:48;;;;;;;6.83;4.33;;;;;;;;;;5031741;28;20449;-56
2023/10/23 12:36:15;;;;;;;6.90;5.33;;;;;;;;;;5030281;28;20056;-56
2023/10/23 12:38:44;;;;;;;7.30;5.00;;;;;;;;;;5029967;28;20506;-56
2023/10/23 12:41:12;;;;;;;6.30;4.60;;;;;;;;;;5030131;28;20485;-56
2023/10/23 12:43:38;;;;;;;21.70;7.50;;;;;;;;;;5032717;28;20500;-54
2023/10/23 12:46:09;;;;;;;8.20;5.83;;;;;;;;;;5034487;28;20030;-54
2023/10/23 12:48:41;;;;;;;10.10;7.00;;;;;;;;;;5035103;28;20052;-54
2023/10/23 12:51:09;;;;;;;6.30;5.30;;;;;;;;;;5034634;28;20036;-54
2023/10/23 12:53:35;;;;;;;21.90;5.97;;;;;;;;;;5035047;28;20099;-54
2023/10/23 12:56:02;;;;;;;8.43;5.50;;;;;;;;;;5031646;28;20353;-54
2023/10/23 12:58:29;;;;;;;6.50;4.27;;;;;;;;;;5029002;28;20033;-54
2023/10/23 13:00:56;;;;;;;12.07;6.37;;;;;;;;;;5029578;28;20025;-54
2023/10/23 13:03:23;;;;;;;8.87;5.30;;;;;;;;;;5029652;28;20033;-56
2023/10/23 13:05:50;;;;;;;7.27;5.77;;;;;;;;;;5031804;28;20022;-56
2023/10/23 13:08:17;;;;;;;12.33;6.37;;;;;;;;;;5034591;28;20036;-56
2023/10/23 13:10:44;;;;;;;7.03;5.17;;;;;;;;;;5034512;28;20033;-56
2023/10/23 13:13:11;;;;;;;8.83;5.50;;;;;;;;;;5034060;28;20026;-56
2023/10/23 13:15:37;;;;;;;5.13;4.03;;;;;;;;;;5034699;28;20473;-56
2023/10/23 13:18:04;;;;;;;8.33;5.20;;;;;;;;;;5032293;28;20025;-56
2023/10/23 13:20:31;;;;;;;15.27;6.23;;;;;;;;;;5029068;28;20045;-54
2023/10/23 13:22:57;;;;;;;7.87;6.17;;;;;;;;;;5029387;28;20105;-54
2023/10/23 13:25:25;;;;;;;11.07;5.80;;;;;;;;;;5029553;28;20033;-55
2023/10/23 13:27:51;;;;;;;13.70;6.83;;;;;;;;;;5029818;28;20469;-54
2023/10/23 13:30:19;;;;;;;12.10;5.77;;;;;;;;;;5033621;28;20087;-54
2023/10/23 13:32:46;;;;;;;5.63;4.50;;;;;;;;;;5033653;28;20025;-54
2023/10/23 13:35:15;;;;;;;10.40;5.47;;;;;;;;;;5034082;28;20088;-54
2023/10/23 13:37:42;;;;;;;10.23;5.53;;;;;;;;;;5033754;28;20034;-54
2023/10/23 13:40:09;;;;;;;7.53;5.37;;;;;;;;;;5031990;28;20033;-54
2023/10/23 13:42:36;;;;;;;5.57;4.07;;;;;;;;;;5028673;28;20026;-54
2023/10/23 13:45:02;;;;;;;8.83;5.20;;;;;;;;;;5028831;28;20357;-56
2023/10/23 13:47:29;;;;;;;4.40;3.70;;;;;;;;;;5028523;28;20036;-57
2023/10/23 13:49:58;;;;;;;7.87;5.67;;;;;;;;;;5028884;28;20116;-57
2023/10/23 13:52:25;;;;;;;7.10;5.00;;;;;;;;;;5033710;28;20029;-57
2023/10/23 13:54:52;;;;;;;6.97;4.93;;;;;;;;;;5033699;28;20108;-56
2023/10/23 13:57:18;;;;;;;9.03;6.27;;;;;;;;;;5033772;28;20492;-57
2023/10/23 13:59:46;;;;;;;9.67;5.63;;;;;;;;;;5033535;28;20124;-57
2023/10/23 14:02:13;;;;;;;6.80;5.77;;;;;;;;;;5032633;28;20032;-57
2023/10/23 14:04:39;;;;;;;9.80;7.83;;;;;;;;;;5028122;28;20029;-57
2023/10/23 14:07:06;;;;;;;10.83;7.30;;;;;;;;;;5028815;28;20022;-57
2023/10/23 14:09:33;;;;;;;9.03;7.07;;;;;;;;;;5028496;28;20101;-57
2023/10/23 14:11:59;;;;;;;10.50;7.40;;;;;;;;;;5028088;28;20100;-57
2023/10/23 14:14:27;;;;;;;7.63;6.27;;;;;;;;;;5033246;28;20035;-56
2023/10/23 14:16:54;;;;;;;9.97;5.87;;;;;;;;;;5033293;28;20041;-57
2023/10/23 14:19:20;;;;;;;7.77;6.60;;;;;;;;;;5032983;28;20127;-57
2023/10/23 14:21:47;;;;;;;9.60;6.80;;;;;;;;;;5032798;28;20069;-57
2023/10/23 14:24:14;;;;;;;6.17;4.83;;;;;;;;;;5033289;28;20103;-56
2023/10/23 14:26:41;;;;;;;9.43;7.23;;;;;;;;;;5027918;28;20388;-56
2023/10/23 14:29:08;;;;;;;10.77;7.30;;;;;;;;;;5027811;28;20022;-57
2023/10/23 14:31:34;;;;;;;15.27;7.87;;;;;;;;;;5027939;28;20538;-57
2023/10/23 14:34:01;;;;;;;8.23;6.03;;;;;;;;;;5027170;28;20095;-57
2023/10/23 14:36:28;;;;;;;9.70;6.97;;;;;;;;;;5032170;28;20472;-57
2023/10/23 14:38:54;;;;;;;15.47;7.60;;;;;;;;;;5032916;28;20053;-56
2023/10/23 14:41:22;;;;;;;9.40;6.53;;;;;;;;;;5032972;28;20021;-57